createdAt,value
2023-04-10T00:00:13.316Z,60.23
2023-04-10T00:02:41.176Z,60.18
2023-04-10T00:05:09.776Z,60.18
2023-04-10T00:07:37.440Z,60.11
2023-04-10T00:10:05.556Z,59.79
2023-04-10T00:12:34.724Z,60.34
2023-04-10T00:15:02.385Z,60.21
2023-04-10T00:17:30.066Z,60.18
2023-04-10T00:19:59.154Z,60.05
2023-04-10T00:22:26.921Z,60.11
2023-04-10T00:24:54.582Z,60.31
2023-04-10T00:27:22.188Z,60.30
2023-04-10T00:29:51.154Z,60.11
2023-04-10T00:32:18.812Z,60.26
2023-04-10T00:34:46.424Z,60.25
2023-04-10T00:37:14.058Z,60.20
2023-04-10T00:39:41.714Z,60.29
2023-04-10T00:42:10.057Z,60.49
2023-04-10T00:44:38.100Z,60.41
2023-04-10T00:47:08.298Z,60.40
2023-04-10T00:49:36.101Z,60.35
2023-04-10T00:52:03.857Z,60.52
2023-04-10T00:54:33.058Z,60.16
2023-04-10T00:57:00.765Z,60.25
2023-04-10T00:59:28.538Z,60.52
2023-04-10T01:01:56.468Z,59.99
2023-04-10T01:04:26.775Z,60.53
2023-04-10T01:07:00.579Z,60.16
2023-04-10T01:09:37.401Z,60.26
2023-04-10T01:12:13.571Z,60.31
2023-04-10T01:14:48.381Z,60.16
2023-04-10T01:17:22.870Z,60.47
2023-04-10T01:20:03.139Z,60.27
2023-04-10T01:22:53.264Z,59.99
2023-04-10T01:25:39.434Z,60.37
2023-04-10T01:28:21.637Z,60.34
2023-04-10T01:30:53.273Z,60.29
2023-04-10T01:33:23.735Z,60.50
2023-04-10T01:35:54.354Z,60.43
2023-04-10T01:38:25.045Z,60.34
2023-04-10T01:40:55.832Z,60.19
2023-04-10T01:43:26.384Z,60.68
2023-04-10T01:45:55.504Z,60.12
2023-04-10T01:48:23.189Z,60.31
2023-04-10T01:50:52.414Z,60.45
2023-04-10T01:53:21.177Z,60.25
2023-04-10T01:55:49.358Z,60.00
2023-04-10T01:58:17.625Z,60.23
2023-04-10T02:00:45.274Z,60.32
2023-04-10T02:03:14.387Z,60.23
2023-04-10T02:05:50.259Z,60.28
2023-04-10T02:08:25.865Z,60.25
2023-04-10T02:11:01.398Z,60.29
2023-04-10T02:13:30.142Z,60.31
2023-04-10T02:16:03.972Z,60.35
2023-04-10T02:18:35.325Z,60.40
2023-04-10T02:21:03.774Z,60.33
2023-04-10T02:23:31.420Z,60.25
2023-04-10T02:25:59.058Z,60.34
2023-04-10T02:28:27.128Z,60.10
2023-04-10T02:30:54.748Z,60.19
2023-04-10T02:33:22.398Z,60.08
2023-04-10T02:35:51.401Z,60.40
2023-04-10T02:38:19.062Z,60.51
2023-04-10T02:40:47.166Z,60.50
2023-04-10T02:43:14.787Z,60.45
2023-04-10T02:45:42.593Z,60.47
2023-04-10T02:48:11.005Z,60.42
2023-04-10T02:50:38.626Z,60.49
2023-04-10T02:53:07.910Z,60.36
2023-04-10T02:55:35.526Z,60.64
2023-04-10T02:58:03.108Z,60.49
2023-04-10T03:00:31.068Z,60.47
2023-04-10T03:02:58.748Z,60.41
2023-04-10T03:05:27.279Z,60.44
2023-04-10T03:07:55.002Z,60.45
2023-04-10T03:10:24.628Z,60.41
2023-04-10T03:12:52.468Z,60.59
2023-04-10T03:15:20.078Z,60.26
2023-04-10T03:17:47.835Z,60.35
2023-04-10T03:20:16.419Z,60.20
2023-04-10T03:22:44.079Z,60.40
2023-04-10T03:25:11.671Z,60.35
2023-04-10T03:27:41.190Z,60.26
2023-04-10T03:30:09.894Z,60.32
2023-04-10T03:32:38.999Z,60.32
2023-04-10T03:35:07.572Z,60.45
2023-04-10T03:37:35.363Z,60.40
2023-04-10T03:40:04.207Z,60.16
2023-04-10T03:42:31.851Z,60.42
2023-04-10T03:45:04.405Z,60.46
2023-04-10T03:47:32.091Z,60.32
2023-04-10T03:49:59.826Z,60.39
2023-04-10T03:52:28.128Z,60.67
2023-04-10T03:54:55.859Z,60.40
2023-04-10T03:57:23.538Z,60.25
2023-04-10T03:59:51.568Z,60.31
2023-04-10T04:02:20.750Z,60.51
2023-04-10T04:04:49.307Z,60.37
2023-04-10T04:07:16.996Z,60.34
2023-04-10T04:09:44.662Z,60.30
2023-04-10T04:12:12.381Z,60.13
2023-04-10T04:14:39.995Z,60.23
2023-04-10T04:17:07.642Z,60.15
2023-04-10T04:19:36.576Z,60.44
2023-04-10T04:22:04.238Z,60.31
2023-04-10T04:24:31.940Z,60.16
2023-04-10T04:26:59.536Z,60.26
2023-04-10T04:29:27.153Z,60.20
2023-04-10T04:31:54.844Z,60.30
2023-04-10T04:34:22.514Z,60.31
2023-04-10T04:36:51.718Z,60.25
2023-04-10T04:39:19.424Z,60.25
2023-04-10T04:41:47.041Z,60.30
2023-04-10T04:44:14.645Z,60.24
2023-04-10T04:46:44.472Z,60.37
2023-04-10T04:49:12.546Z,60.17
2023-04-10T04:51:40.244Z,60.37
2023-04-10T04:54:09.172Z,60.34
2023-04-10T04:56:37.230Z,60.20
2023-04-10T04:59:04.852Z,60.01
2023-04-10T05:01:32.503Z,60.18
2023-04-10T05:04:00.242Z,60.38
2023-04-10T05:06:28.042Z,60.37
2023-04-10T05:08:56.120Z,60.43
2023-04-10T05:11:25.419Z,60.13
2023-04-10T05:13:52.990Z,60.00
2023-04-10T05:16:20.699Z,60.17
2023-04-10T05:18:48.374Z,60.48
2023-04-10T05:21:16.083Z,60.44
2023-04-10T05:23:43.766Z,60.30
2023-04-10T05:26:11.375Z,60.23
2023-04-10T05:28:40.315Z,60.30
2023-04-10T05:31:08.170Z,60.16
2023-04-10T05:33:36.021Z,60.33
2023-04-10T05:36:03.815Z,60.11
2023-04-10T05:38:31.461Z,60.15
2023-04-10T05:40:59.081Z,60.12
2023-04-10T05:43:26.684Z,60.10
2023-04-10T05:45:55.704Z,60.36
2023-04-10T05:48:26.173Z,60.26
2023-04-10T05:50:53.833Z,60.34
2023-04-10T05:53:22.213Z,60.42
2023-04-10T05:55:52.292Z,60.05
2023-04-10T05:58:19.888Z,60.31
2023-04-10T06:00:47.677Z,60.27
2023-04-10T06:03:16.718Z,60.20
2023-04-10T06:05:44.379Z,60.03
2023-04-10T06:08:12.074Z,60.27
2023-04-10T06:10:39.685Z,60.38
2023-04-10T06:13:09.804Z,60.32
2023-04-10T06:15:38.781Z,60.10
2023-04-10T06:18:06.441Z,60.30
2023-04-10T06:20:35.380Z,60.24
2023-04-10T06:23:03.829Z,60.40
2023-04-10T06:25:31.456Z,60.45
2023-04-10T06:27:59.309Z,60.52
2023-04-10T06:30:26.963Z,60.23
2023-04-10T06:32:54.743Z,60.20
2023-04-10T06:35:22.621Z,60.10
2023-04-10T06:37:51.567Z,60.62
2023-04-10T06:40:19.191Z,60.03
2023-04-10T06:42:46.919Z,60.50
2023-04-10T06:45:14.534Z,60.02
2023-04-10T06:47:42.220Z,60.24
2023-04-10T06:50:10.573Z,60.09
2023-04-10T06:52:38.180Z,60.32
2023-04-10T06:55:08.387Z,60.28
2023-04-10T06:57:36.040Z,60.31
2023-04-10T07:00:03.811Z,60.23
2023-04-10T07:02:31.547Z,60.07
2023-04-10T07:04:59.210Z,60.19
2023-04-10T07:07:26.821Z,60.11
2023-04-10T07:09:54.408Z,60.20
2023-04-10T07:12:23.362Z,60.39
2023-04-10T07:14:50.983Z,60.39
2023-04-10T07:17:18.716Z,60.48
2023-04-10T07:19:46.362Z,60.23
2023-04-10T07:22:14.718Z,60.31
2023-04-10T07:24:42.381Z,60.51
2023-04-10T07:27:09.986Z,59.96
2023-04-10T07:29:38.959Z,60.03
2023-04-10T07:32:07.247Z,53.25
2023-04-10T07:34:34.974Z,51.92
2023-04-10T07:37:02.909Z,52.84
2023-04-10T07:39:30.544Z,53.07
2023-04-10T07:41:58.100Z,53.42
2023-04-10T07:44:28.582Z,53.48
2023-04-10T07:46:58.819Z,53.95
2023-04-10T07:49:27.146Z,53.75
2023-04-10T07:51:54.797Z,53.76
2023-04-10T07:54:22.488Z,53.81
2023-04-10T07:56:52.659Z,53.91
2023-04-10T07:59:20.238Z,52.54
2023-04-10T08:01:47.879Z,52.86
2023-04-10T08:04:17.221Z,51.61
2023-04-10T08:06:44.958Z,51.82
2023-04-10T08:09:12.574Z,51.95
2023-04-10T08:11:40.156Z,51.63
2023-04-10T08:14:07.919Z,51.70
2023-04-10T08:16:38.499Z,52.04
2023-04-10T08:19:06.321Z,52.08
2023-04-10T08:21:35.285Z,51.65
2023-04-10T08:24:04.152Z,50.55
2023-04-10T08:26:32.156Z,49.78
2023-04-10T08:29:01.249Z,49.62
2023-04-10T08:31:30.299Z,49.06
2023-04-10T08:33:58.818Z,50.10
2023-04-10T08:36:27.485Z,50.20
2023-04-10T08:38:56.548Z,49.07
2023-04-10T08:41:24.186Z,48.17
2023-04-10T08:43:51.839Z,49.13
2023-04-10T08:46:20.149Z,48.97
2023-04-10T08:48:53.517Z,48.75
2023-04-10T08:51:26.179Z,49.24
2023-04-10T08:54:00.061Z,48.29
2023-04-10T08:56:28.771Z,47.80
2023-04-10T08:58:56.525Z,47.67
2023-04-10T09:01:24.899Z,48.63
2023-04-10T09:03:52.861Z,47.85
2023-04-10T09:06:20.625Z,48.35
2023-04-10T09:08:48.215Z,48.19
2023-04-10T09:11:17.203Z,48.21
2023-04-10T09:13:46.354Z,48.10
2023-04-10T09:16:15.436Z,48.00
2023-04-10T09:18:45.332Z,48.12
2023-04-10T09:21:14.635Z,46.97
2023-04-10T09:23:43.106Z,47.94
2023-04-10T09:26:29.213Z,47.40
2023-04-10T09:28:58.842Z,47.32
2023-04-10T09:31:31.899Z,48.18
2023-04-10T09:34:09.077Z,47.77
2023-04-10T09:36:37.805Z,47.52
2023-04-10T09:39:05.842Z,47.44
2023-04-10T09:41:34.819Z,47.25
2023-04-10T09:44:11.390Z,47.72
2023-04-10T09:46:39.461Z,47.84
2023-04-10T09:49:07.260Z,46.60
2023-04-10T09:51:36.362Z,47.00
2023-04-10T09:54:05.377Z,47.59
2023-04-10T09:56:40.119Z,47.00
2023-04-10T09:59:09.444Z,46.66
2023-04-10T10:01:41.161Z,47.28
2023-04-10T10:04:09.219Z,45.55
2023-04-10T10:06:39.867Z,47.26
2023-04-10T10:09:07.684Z,47.70
2023-04-10T10:11:37.046Z,46.94
2023-04-10T10:14:08.978Z,47.01
2023-04-10T10:16:44.431Z,46.54
2023-04-10T10:19:17.322Z,46.51
2023-04-10T10:21:46.079Z,46.09
2023-04-10T10:24:14.568Z,47.12
2023-04-10T10:26:45.129Z,46.17
2023-04-10T10:29:14.885Z,46.38
2023-04-10T10:31:43.813Z,46.43
2023-04-10T10:34:11.541Z,46.54
2023-04-10T10:36:41.325Z,45.28
2023-04-10T10:39:22.911Z,44.40
2023-04-10T10:42:01.405Z,43.86
2023-04-10T10:44:37.476Z,43.38
2023-04-10T10:47:11.052Z,44.38
2023-04-10T10:50:00.805Z,43.61
2023-04-10T10:52:45.850Z,44.13
2023-04-10T10:55:40.408Z,42.76
2023-04-10T10:58:11.251Z,43.12
2023-04-10T11:01:10.321Z,41.99
2023-04-10T11:03:39.089Z,42.24
2023-04-10T11:06:08.935Z,43.11
2023-04-10T11:08:45.970Z,40.77
2023-04-10T11:11:16.907Z,40.86
2023-04-10T11:14:15.681Z,41.86
2023-04-10T11:16:44.785Z,42.35
2023-04-10T11:19:16.269Z,40.83
2023-04-10T11:22:03.503Z,41.64
2023-04-10T11:24:52.910Z,41.66
2023-04-10T11:27:46.242Z,42.32
2023-04-10T11:30:36.615Z,41.67
2023-04-10T11:33:06.224Z,41.23
2023-04-10T11:35:34.200Z,40.55
2023-04-10T11:38:18.809Z,41.11
2023-04-10T11:40:57.306Z,40.38
2023-04-10T11:43:24.933Z,39.79
2023-04-10T11:46:00.897Z,39.80
2023-04-10T11:48:28.730Z,38.96
2023-04-10T11:50:56.421Z,39.71
2023-04-10T11:53:24.067Z,39.88
2023-04-10T11:55:51.798Z,40.14
2023-04-10T11:58:23.739Z,39.62
2023-04-10T12:01:00.748Z,39.87
2023-04-10T12:03:39.670Z,37.77
2023-04-10T12:06:10.355Z,38.39
2023-04-10T12:08:39.564Z,39.53
2023-04-10T12:11:07.916Z,39.20
2023-04-10T12:13:35.734Z,39.55
2023-04-10T12:16:07.380Z,39.49
2023-04-10T12:18:35.926Z,38.91
2023-04-10T12:21:04.742Z,38.91
2023-04-10T12:23:33.398Z,38.74
2023-04-10T12:26:09.788Z,39.81
2023-04-10T12:28:38.454Z,40.16
2023-04-10T12:31:08.800Z,38.76
2023-04-10T12:33:37.012Z,39.46
2023-04-10T12:36:05.218Z,38.68
2023-04-10T12:38:37.117Z,39.38
2023-04-10T12:41:06.164Z,39.60
2023-04-10T12:43:35.536Z,38.75
2023-04-10T12:46:04.233Z,39.60
2023-04-10T12:48:33.534Z,38.05
2023-04-10T12:51:01.682Z,37.80
2023-04-10T12:53:29.571Z,38.45
2023-04-10T12:55:59.273Z,38.96
2023-04-10T12:58:28.579Z,37.74
2023-04-10T13:00:57.285Z,38.07
2023-04-10T13:03:25.691Z,37.92
2023-04-10T13:05:54.903Z,38.60
2023-04-10T13:08:23.231Z,39.55
2023-04-10T13:10:50.964Z,39.27
2023-04-10T13:13:19.125Z,40.33
2023-04-10T13:15:46.776Z,39.97
2023-04-10T13:18:14.475Z,40.30
2023-04-10T13:20:42.974Z,41.13
2023-04-10T13:23:11.924Z,39.93
2023-04-10T13:25:42.240Z,39.56
2023-04-10T13:28:11.278Z,39.16
2023-04-10T13:30:40.295Z,40.16
2023-04-10T13:33:08.512Z,40.22
2023-04-10T13:35:36.296Z,41.51
2023-04-10T13:38:04.040Z,40.34
2023-04-10T13:40:33.333Z,40.59
2023-04-10T13:43:00.978Z,41.20
2023-04-10T13:45:28.658Z,42.07
2023-04-10T13:47:56.418Z,41.27
2023-04-10T13:50:24.079Z,41.13
2023-04-10T13:52:53.518Z,41.57
2023-04-10T13:55:21.409Z,42.58
2023-04-10T13:57:50.397Z,42.21
2023-04-10T14:00:18.437Z,41.30
2023-04-10T14:02:47.085Z,41.79
2023-04-10T14:05:14.750Z,39.88
2023-04-10T14:07:42.370Z,39.08
2023-04-10T14:10:11.179Z,40.04
2023-04-10T14:12:38.798Z,40.00
2023-04-10T14:15:09.125Z,41.08
2023-04-10T14:17:36.765Z,40.60
2023-04-10T14:20:04.692Z,40.53
2023-04-10T14:22:32.330Z,40.33
2023-04-10T14:25:11.742Z,41.66
2023-04-10T14:27:40.464Z,41.66
2023-04-10T14:30:10.501Z,41.24
2023-04-10T14:32:39.548Z,40.64
2023-04-10T14:35:08.321Z,40.81
2023-04-10T14:37:35.977Z,42.85
2023-04-10T14:40:04.845Z,44.11
2023-04-10T14:42:32.524Z,45.43
2023-04-10T14:45:00.491Z,45.78
2023-04-10T14:47:29.571Z,46.02
2023-04-10T14:49:57.254Z,46.19
2023-04-10T14:52:24.982Z,46.67
2023-04-10T14:54:52.577Z,46.90
2023-04-10T14:57:20.298Z,47.54
2023-04-10T14:59:47.902Z,47.51
2023-04-10T15:02:15.529Z,47.85
2023-04-10T15:04:44.590Z,48.08
2023-04-10T15:07:12.150Z,48.28
2023-04-10T15:09:40.569Z,48.48
2023-04-10T15:12:08.545Z,48.52
2023-04-10T15:14:36.143Z,48.82
2023-04-10T15:17:03.773Z,48.97
2023-04-10T15:19:31.402Z,49.21
2023-04-10T15:22:00.344Z,49.48
2023-04-10T15:24:29.175Z,49.79
2023-04-10T15:26:58.698Z,49.76
2023-04-10T15:29:26.365Z,49.69
2023-04-10T15:31:54.036Z,50.10
2023-04-10T15:34:21.650Z,50.03
2023-04-10T15:36:49.252Z,49.84
2023-04-10T15:39:18.190Z,50.26
2023-04-10T15:41:45.881Z,50.10
2023-04-10T15:44:13.501Z,50.28
2023-04-10T15:46:41.168Z,50.46
2023-04-10T15:49:08.982Z,50.68
2023-04-10T15:51:36.955Z,50.78
2023-04-10T15:54:05.244Z,50.57
2023-04-10T15:56:34.984Z,50.90
2023-04-10T15:59:02.564Z,51.03
2023-04-10T16:01:30.930Z,51.29
2023-04-10T16:03:59.023Z,51.19
2023-04-10T16:06:28.193Z,51.13
2023-04-10T16:08:55.809Z,51.13
2023-04-10T16:11:23.425Z,51.14
2023-04-10T16:13:52.406Z,51.65
2023-04-10T16:16:20.153Z,51.37
2023-04-10T16:18:47.858Z,51.69
2023-04-10T16:21:15.520Z,51.58
2023-04-10T16:23:43.138Z,51.63
2023-04-10T16:26:10.803Z,51.67
2023-04-10T16:28:38.397Z,51.56
2023-04-10T16:31:07.831Z,51.63
2023-04-10T16:33:35.521Z,51.69
2023-04-10T16:36:04.676Z,51.86
2023-04-10T16:38:34.480Z,51.86
2023-04-10T16:41:03.210Z,51.95
2023-04-10T16:43:30.906Z,52.05
2023-04-10T16:46:00.439Z,52.23
2023-04-10T16:48:29.418Z,52.14
2023-04-10T16:51:04.602Z,52.13
2023-04-10T16:53:32.496Z,52.13
2023-04-10T16:56:02.936Z,52.09
2023-04-10T16:58:31.260Z,52.17
2023-04-10T17:00:58.929Z,52.18
2023-04-10T17:03:26.694Z,52.24
2023-04-10T17:05:55.795Z,52.34
2023-04-10T17:08:23.395Z,52.51
2023-04-10T17:10:50.983Z,52.22
2023-04-10T17:13:20.180Z,52.47
2023-04-10T17:15:47.948Z,52.66
2023-04-10T17:18:15.669Z,52.67
2023-04-10T17:20:43.320Z,52.85
2023-04-10T17:23:12.291Z,52.50
2023-04-10T17:25:40.000Z,52.48
2023-04-10T17:28:07.735Z,52.67
2023-04-10T17:30:35.574Z,53.05
2023-04-10T17:33:03.208Z,52.81
2023-04-10T17:35:30.872Z,52.95
2023-04-10T17:37:58.476Z,53.04
2023-04-10T17:40:27.743Z,53.02
2023-04-10T17:42:55.605Z,52.95
2023-04-10T17:45:23.220Z,53.06
2023-04-10T17:47:50.974Z,53.25
2023-04-10T17:50:18.781Z,53.09
2023-04-10T17:52:46.422Z,53.49
2023-04-10T17:55:18.346Z,53.48
2023-04-10T17:57:49.809Z,53.39
2023-04-10T18:00:20.461Z,53.33
2023-04-10T18:02:48.941Z,53.50
2023-04-10T18:05:16.785Z,53.48
2023-04-10T18:07:44.510Z,53.26
2023-04-10T18:10:12.620Z,53.13
2023-04-10T18:12:41.607Z,53.37
2023-04-10T18:15:11.655Z,53.73
2023-04-10T18:17:39.584Z,53.58
2023-04-10T18:20:07.781Z,53.51
2023-04-10T18:22:35.474Z,53.64
2023-04-10T18:25:03.120Z,53.61
2023-04-10T18:27:31.771Z,53.80
2023-04-10T18:29:59.425Z,53.83
2023-04-10T18:32:28.388Z,53.60
2023-04-10T18:34:55.979Z,53.58
2023-04-10T18:37:23.740Z,53.87
2023-04-10T18:39:51.385Z,53.86
2023-04-10T18:42:18.979Z,53.97
2023-04-10T18:44:46.616Z,54.09
2023-04-10T18:47:14.601Z,53.82
2023-04-10T18:49:43.534Z,53.98
2023-04-10T18:52:11.158Z,54.05
2023-04-10T18:54:39.341Z,54.01
2023-04-10T18:57:07.557Z,54.04
2023-04-10T18:59:35.288Z,54.06
2023-04-10T19:02:03.163Z,54.02
2023-04-10T19:04:30.946Z,54.24
2023-04-10T19:07:00.011Z,54.01
2023-04-10T19:09:27.849Z,54.20
2023-04-10T19:11:56.185Z,53.88
2023-04-10T19:14:23.842Z,53.99
2023-04-10T19:16:51.450Z,54.33
2023-04-10T19:19:19.082Z,54.50
2023-04-10T19:21:46.684Z,54.22
2023-04-10T19:24:15.600Z,54.57
2023-04-10T19:26:43.266Z,54.09
2023-04-10T19:29:10.838Z,54.25
2023-04-10T19:31:38.564Z,54.09
2023-04-10T19:34:09.311Z,54.24
2023-04-10T19:36:37.331Z,54.23
2023-04-10T19:39:05.260Z,54.25
2023-04-10T19:41:34.286Z,54.44
2023-04-10T19:44:01.959Z,54.17
2023-04-10T19:46:29.669Z,54.40
2023-04-10T19:48:57.376Z,54.49
2023-04-10T19:51:25.051Z,54.49
2023-04-10T19:53:52.678Z,54.74
2023-04-10T19:56:21.123Z,54.54
2023-04-10T19:58:50.186Z,54.50
2023-04-10T20:01:18.168Z,54.44
2023-04-10T20:03:45.991Z,54.45
2023-04-10T20:06:13.842Z,54.50
2023-04-10T20:08:41.611Z,54.65
2023-04-10T20:11:09.532Z,54.80
2023-04-10T20:13:38.560Z,54.56
2023-04-10T20:16:08.665Z,54.67
2023-04-10T20:18:36.911Z,54.74
2023-04-10T20:21:04.718Z,54.67
2023-04-10T20:23:32.313Z,54.64
2023-04-10T20:25:59.926Z,54.77
2023-04-10T20:28:27.564Z,54.68
2023-04-10T20:30:55.146Z,54.81
2023-04-10T20:33:24.430Z,54.82
2023-04-10T20:35:53.778Z,54.88
2023-04-10T20:38:21.767Z,54.87
2023-04-10T20:40:49.359Z,54.59
2023-04-10T20:43:18.661Z,54.85
2023-04-10T20:45:46.703Z,54.97
2023-04-10T20:48:14.412Z,54.77
2023-04-10T20:50:45.915Z,54.90
2023-04-10T20:53:13.746Z,55.09
2023-04-10T20:55:41.837Z,55.22
2023-04-10T20:58:09.459Z,54.97
2023-04-10T21:00:37.376Z,54.97
2023-04-10T21:03:05.713Z,55.00
2023-04-10T21:05:33.524Z,54.95
2023-04-10T21:08:02.487Z,54.97
2023-04-10T21:10:30.102Z,55.08
2023-04-10T21:12:57.693Z,54.92
2023-04-10T21:15:25.304Z,54.80
2023-04-10T21:17:52.951Z,55.09
2023-04-10T21:20:20.596Z,55.07
2023-04-10T21:22:48.214Z,55.33
2023-04-10T21:25:17.361Z,55.01
2023-04-10T21:27:44.918Z,55.13
2023-04-10T21:30:12.976Z,55.20
2023-04-10T21:32:40.660Z,55.46
2023-04-10T21:35:08.782Z,55.34
2023-04-10T21:37:36.371Z,55.25
2023-04-10T21:40:04.090Z,55.29
2023-04-10T21:42:33.357Z,55.18
2023-04-10T21:45:01.048Z,55.38
2023-04-10T21:47:28.649Z,55.44
2023-04-10T21:49:56.242Z,55.43
2023-04-10T21:52:23.876Z,55.25
2023-04-10T21:54:51.503Z,55.44
2023-04-10T21:57:19.426Z,55.33
2023-04-10T21:59:48.354Z,55.30
2023-04-10T22:02:16.083Z,55.54
2023-04-10T22:04:54.036Z,55.83
2023-04-10T22:07:22.594Z,55.53
2023-04-10T22:09:50.304Z,55.58
2023-04-10T22:12:17.955Z,55.27
2023-04-10T22:14:46.069Z,55.52
2023-04-10T22:17:15.137Z,55.68
2023-04-10T22:19:42.844Z,55.58
2023-04-10T22:22:10.522Z,55.22
2023-04-10T22:24:38.128Z,55.61
2023-04-10T22:27:05.735Z,55.50
2023-04-10T22:29:34.667Z,55.49
2023-04-10T22:32:02.454Z,55.81
2023-04-10T22:34:31.381Z,55.46
2023-04-10T22:36:59.025Z,55.66
2023-04-10T22:39:26.691Z,55.67
2023-04-10T22:41:54.277Z,55.99
2023-04-10T22:44:21.903Z,55.85
2023-04-10T22:46:49.548Z,55.78
2023-04-10T22:49:17.594Z,55.65
2023-04-10T22:51:46.604Z,55.72
2023-04-10T22:54:15.859Z,55.89
2023-04-10T22:56:44.208Z,56.09
2023-04-10T22:59:11.871Z,55.86
2023-04-10T23:01:39.582Z,56.12
2023-04-10T23:04:07.349Z,55.81
2023-04-10T23:06:34.971Z,55.60
2023-04-10T23:09:04.172Z,55.98
2023-04-10T23:11:31.815Z,55.88
2023-04-10T23:13:59.463Z,56.23
2023-04-10T23:16:27.145Z,55.98
2023-04-10T23:18:55.132Z,55.71
2023-04-10T23:21:22.889Z,55.94
2023-04-10T23:23:50.464Z,56.20
2023-04-10T23:26:19.478Z,55.93
2023-04-10T23:28:47.063Z,55.97
2023-04-10T23:31:14.729Z,55.68
2023-04-10T23:33:42.468Z,55.94
2023-04-10T23:36:10.475Z,56.13
2023-04-10T23:38:38.040Z,56.04
2023-04-10T23:41:07.028Z,56.20
2023-04-10T23:43:35.958Z,56.33
2023-04-10T23:46:03.559Z,56.14
2023-04-10T23:48:31.164Z,56.09
2023-04-10T23:51:05.728Z,55.91
2023-04-10T23:53:33.620Z,55.95
2023-04-10T23:56:01.593Z,56.23
2023-04-10T23:58:29.200Z,55.95
